Alcem Lugait — C6DJ4 — position and weather

sailwx.info

Track history (hours):
 
Tides and Currents Weather Stations Pressure Air Temp Water Temp Dewpoint Dewpoint Depression Visibility Wind Speed Wind Dir Waves Ship Positions

Alcem Lugait

Last reported at 2017-Nov-18 08:44 UTC. Time now 2017-Nov-19 14:15 UTC.
Position S 27°59' E 153°57'.

Length 170 m; draft 6.8 m.

Type: Cargo ship. MMSI: 311000692.

Date/timePositionNaut miles runAvg speedWind from/ knotsBaromVisibWave heightAir tempDewpointWater temp
2017-Nov-18 08:44S 27°59' E 153°57'311.5
2017-Nov-18 08:30S 28°02' E 153°57'611.3
2017-Nov-18 08:00S 28°07' E 153°57'611.4
2017-Nov-18 07:30S 28°13' E 153°57'1311.1
2017-Nov-18 06:18S 28°26' E 153°57'310.7
2017-Nov-18 05:59S 28°30' E 153°57'27210.5
2017-Nov-17 04:11S 32°54' E 152°43'211.9
2017-Nov-17 03:59S 32°56' E 152°42'611.7
2017-Nov-17 03:30S 33°01' E 152°39'36211.0
2017-Nov-15 18:30S 38°19' E 149°07'1012.7
2017-Nov-15 17:44S 38°25' E 148°57'312.6
2017-Nov-15 17:30S 38°26' E 148°54'612.4
2017-Nov-15 16:59S 38°30' E 148°47'912.6
2017-Nov-15 16:15S 38°35' E 148°37'312.7
2017-Nov-15 16:00S 38°37' E 148°34'812.7
2017-Nov-15 15:20S 38°42' E 148°25'512.5
2017-Nov-15 14:58S 38°44' E 148°20'4013.4
2017-Nov-15 11:57S 38°59' E 147°32'7812.2
2017-Nov-15 05:37S 39°07' E 145°53'713.6
2017-Nov-15 05:08S 39°03' E 145°45'80 9.1
2017-Nov-14 20:18S 37°53' E 144°56'  
Track history (hours):
 
Tides and Currents Weather Stations Pressure Air Temp Water Temp Dewpoint Dewpoint Depression Visibility Wind Speed Wind Dir Waves Ship Positions

Alcem Lugait

Last reported at 2017-Nov-18 08:44 UTC. Time now 2017-Nov-19 14:15 UTC.
Position S 27°59' E 153°57'.

Length 170 m; draft 6.8 m.

Type: Cargo ship. MMSI: 311000692.

Date/timePositionNaut miles runAvg speedWind from/ knotsBaromVisibWave heightAir tempDewpointWater temp
2017-Nov-18 08:44S 27°59' E 153°57'311.5
2017-Nov-18 08:30S 28°02' E 153°57'611.3
2017-Nov-18 08:00S 28°07' E 153°57'611.4
2017-Nov-18 07:30S 28°13' E 153°57'1311.1
2017-Nov-18 06:18S 28°26' E 153°57'310.7
2017-Nov-18 05:59S 28°30' E 153°57'27210.5
2017-Nov-17 04:11S 32°54' E 152°43'211.9
2017-Nov-17 03:59S 32°56' E 152°42'611.7
2017-Nov-17 03:30S 33°01' E 152°39'36211.0
2017-Nov-15 18:30S 38°19' E 149°07'1012.7
2017-Nov-15 17:44S 38°25' E 148°57'312.6
2017-Nov-15 17:30S 38°26' E 148°54'612.4
2017-Nov-15 16:59S 38°30' E 148°47'912.6
2017-Nov-15 16:15S 38°35' E 148°37'312.7
2017-Nov-15 16:00S 38°37' E 148°34'812.7
2017-Nov-15 15:20S 38°42' E 148°25'512.5
2017-Nov-15 14:58S 38°44' E 148°20'4013.4
2017-Nov-15 11:57S 38°59' E 147°32'7812.2
2017-Nov-15 05:37S 39°07' E 145°53'713.6
2017-Nov-15 05:08S 39°03' E 145°45'80 9.1
2017-Nov-14 20:18S 37°53' E 144°56'  

Dump ship's entire track history